American Queen — WDG2957 — position and weather

sailwx.info

Track history (hours):
 
Tides and Currents Weather Stations Pressure Air Temp Water Temp Dewpoint Dewpoint Depression Visibility Wind Speed Wind Dir Waves Ship Positions

American Queen

Owner: HMS American Queen Steamboat Company, LLC, Memphis, TN. More information available from US FCC via Universal Licensing System and Coast Guard Vessel Documentation Center.

Last reported at 2017-Dec-15 08:00 UTC. Time now 2017-Dec-15 08:12 UTC.
Position N 32°08' W 091°05'.

Length 128 m; draft 2.6 m.

Type: Passenger vessel. MMSI: 366950740.

Date/timePositionNaut miles runAvg speedWind from/ knotsBaromVisibWave heightAir tempDewpointWater temp
2017-Dec-15 08:00N 32°08' W 091°05'5 4.5
2017-Dec-15 06:54N 32°03' W 091°03'1 2.9
2017-Dec-15 06:26N 32°02' W 091°04'3 6.6
2017-Dec-15 05:59N 31°60' W 091°06'3 5.1
2017-Dec-15 05:29N 31°59' W 091°09'3 4.9
2017-Dec-15 04:58N 31°58' W 091°11'  
2017-Dec-12 08:01N 30°01' W 090°43'0 5.7
2017-Dec-12 08:00N 30°01' W 090°43'2 4.7
2017-Dec-12 07:30N 30°02' W 090°41'6 5.5
2017-Dec-12 06:21N 30°03' W 090°34'2 5.0
2017-Dec-12 06:00N 30°03' W 090°32'3 4.8
2017-Dec-12 05:28N 30°03' W 090°29'2 5.0
2017-Dec-12 05:00N 30°00' W 090°28'2 4.7
2017-Dec-12 04:30N 29°60' W 090°26'2 4.7
2017-Dec-12 04:00N 29°58' W 090°24'2 4.9
2017-Dec-12 03:30N 29°56' W 090°22'3 5.0
2017-Dec-12 02:52N 29°57' W 090°18'3 4.7
2017-Dec-12 02:18N 29°58' W 090°15'1 5.0
2017-Dec-12 02:00N 29°58' W 090°14'  
2017-Dec-07 03:30N 31°50' W 091°21'1010.0
2017-Dec-07 02:28N 31°56' W 091°12'610.2
2017-Dec-07 01:54N 31°59' W 091°06'511.7
2017-Dec-07 01:29N 32°04' W 091°03'5 9.7
2017-Dec-07 01:00N 32°08' W 091°06'5 9.7
2017-Dec-07 00:30N 32°09' W 091°00'611.6
2017-Dec-07 00:00N 32°15' W 090°59'611.2
2017-Dec-06 23:30N 32°19' W 090°54'3 5.3
2017-Dec-06 23:00N 32°21' W 090°53'0 0.1
2017-Dec-06 22:30N 32°21' W 090°53'0 0.0
2017-Dec-06 22:00N 32°21' W 090°53'0 0.0
2017-Dec-06 21:30N 32°21' W 090°53'0 0.0
2017-Dec-06 21:00N 32°21' W 090°53'  
Track history (hours):
 
Tides and Currents Weather Stations Pressure Air Temp Water Temp Dewpoint Dewpoint Depression Visibility Wind Speed Wind Dir Waves Ship Positions

American Queen

Owner: HMS American Queen Steamboat Company, LLC, Memphis, TN. More information available from US FCC via Universal Licensing System and Coast Guard Vessel Documentation Center.

Last reported at 2017-Dec-15 08:00 UTC. Time now 2017-Dec-15 08:12 UTC.
Position N 32°08' W 091°05'.

Length 128 m; draft 2.6 m.

Type: Passenger vessel. MMSI: 366950740.

Date/timePositionNaut miles runAvg speedWind from/ knotsBaromVisibWave heightAir tempDewpointWater temp
2017-Dec-15 08:00N 32°08' W 091°05'5 4.5
2017-Dec-15 06:54N 32°03' W 091°03'1 2.9
2017-Dec-15 06:26N 32°02' W 091°04'3 6.6
2017-Dec-15 05:59N 31°60' W 091°06'3 5.1
2017-Dec-15 05:29N 31°59' W 091°09'3 4.9
2017-Dec-15 04:58N 31°58' W 091°11'  
2017-Dec-12 08:01N 30°01' W 090°43'0 5.7
2017-Dec-12 08:00N 30°01' W 090°43'2 4.7
2017-Dec-12 07:30N 30°02' W 090°41'6 5.5
2017-Dec-12 06:21N 30°03' W 090°34'2 5.0
2017-Dec-12 06:00N 30°03' W 090°32'3 4.8
2017-Dec-12 05:28N 30°03' W 090°29'2 5.0
2017-Dec-12 05:00N 30°00' W 090°28'2 4.7
2017-Dec-12 04:30N 29°60' W 090°26'2 4.7
2017-Dec-12 04:00N 29°58' W 090°24'2 4.9
2017-Dec-12 03:30N 29°56' W 090°22'3 5.0
2017-Dec-12 02:52N 29°57' W 090°18'3 4.7
2017-Dec-12 02:18N 29°58' W 090°15'1 5.0
2017-Dec-12 02:00N 29°58' W 090°14'  
2017-Dec-07 03:30N 31°50' W 091°21'1010.0
2017-Dec-07 02:28N 31°56' W 091°12'610.2
2017-Dec-07 01:54N 31°59' W 091°06'511.7
2017-Dec-07 01:29N 32°04' W 091°03'5 9.7
2017-Dec-07 01:00N 32°08' W 091°06'5 9.7
2017-Dec-07 00:30N 32°09' W 091°00'611.6
2017-Dec-07 00:00N 32°15' W 090°59'611.2
2017-Dec-06 23:30N 32°19' W 090°54'3 5.3
2017-Dec-06 23:00N 32°21' W 090°53'0 0.1
2017-Dec-06 22:30N 32°21' W 090°53'0 0.0
2017-Dec-06 22:00N 32°21' W 090°53'0 0.0
2017-Dec-06 21:30N 32°21' W 090°53'0 0.0
2017-Dec-06 21:00N 32°21' W 090°53'  

Dump ship's entire track history